sensor_id;sensor_type;location;lat;lon;timestamp;temperature;humidity
48212;DHT22;34000;48.772;9.162;2023-02-03T00:01:18;10.10;59.90
48212;DHT22;34000;48.772;9.162;2023-02-03T00:03:44;10.00;59.90
48212;DHT22;34000;48.772;9.162;2023-02-03T00:06:09;10.00;59.90
48212;DHT22;34000;48.772;9.162;2023-02-03T00:08:35;10.10;60.00
48212;DHT22;34000;48.772;9.162;2023-02-03T00:11:01;10.00;60.00
48212;DHT22;34000;48.772;9.162;2023-02-03T00:13:27;10.00;60.10
48212;DHT22;34000;48.772;9.162;2023-02-03T00:15:52;10.00;60.10
48212;DHT22;34000;48.772;9.162;2023-02-03T00:18:18;10.00;60.10
48212;DHT22;34000;48.772;9.162;2023-02-03T00:20:43;10.00;60.10
48212;DHT22;34000;48.772;9.162;2023-02-03T00:23:09;10.00;60.20
48212;DHT22;34000;48.772;9.162;2023-02-03T00:25:35;10.00;60.20
48212;DHT22;34000;48.772;9.162;2023-02-03T00:28:01;10.00;60.20
48212;DHT22;34000;48.772;9.162;2023-02-03T00:30:27;10.00;60.20
48212;DHT22;34000;48.772;9.162;2023-02-03T00:32:53;9.90;60.20
48212;DHT22;34000;48.772;9.162;2023-02-03T00:35:18;9.90;60.20
48212;DHT22;34000;48.772;9.162;2023-02-03T00:37:55;9.90;60.20
48212;DHT22;34000;48.772;9.162;2023-02-03T00:40:22;9.90;60.20
48212;DHT22;34000;48.772;9.162;2023-02-03T00:42:47;9.90;60.20
48212;DHT22;34000;48.772;9.162;2023-02-03T00:45:13;10.00;60.30
48212;DHT22;34000;48.772;9.162;2023-02-03T00:47:38;9.90;60.20
48212;DHT22;34000;48.772;9.162;2023-02-03T00:50:04;9.90;60.30
48212;DHT22;34000;48.772;9.162;2023-02-03T00:52:30;9.90;60.30
48212;DHT22;34000;48.772;9.162;2023-02-03T00:54:56;9.90;60.20
48212;DHT22;34000;48.772;9.162;2023-02-03T00:57:21;9.90;60.20
48212;DHT22;34000;48.772;9.162;2023-02-03T00:59:47;9.90;60.30
48212;DHT22;34000;48.772;9.162;2023-02-03T01:02:12;9.90;60.20
48212;DHT22;34000;48.772;9.162;2023-02-03T01:04:37;10.00;60.30
48212;DHT22;34000;48.772;9.162;2023-02-03T01:07:03;9.90;60.20
48212;DHT22;34000;48.772;9.162;2023-02-03T01:09:31;10.00;60.30
48212;DHT22;34000;48.772;9.162;2023-02-03T01:11:57;9.90;60.10
48212;DHT22;34000;48.772;9.162;2023-02-03T01:14:22;9.90;60.20
48212;DHT22;34000;48.772;9.162;2023-02-03T01:16:48;9.90;60.20
48212;DHT22;34000;48.772;9.162;2023-02-03T01:19:13;9.80;60.30
48212;DHT22;34000;48.772;9.162;2023-02-03T01:21:39;9.80;60.40
48212;DHT22;34000;48.772;9.162;2023-02-03T01:24:04;9.80;60.40
48212;DHT22;34000;48.772;9.162;2023-02-03T01:26:30;9.80;60.50
48212;DHT22;34000;48.772;9.162;2023-02-03T01:28:57;9.80;60.50
48212;DHT22;34000;48.772;9.162;2023-02-03T01:31:24;9.70;60.50
48212;DHT22;34000;48.772;9.162;2023-02-03T01:33:50;9.70;60.60
48212;DHT22;34000;48.772;9.162;2023-02-03T01:36:16;9.80;60.70
48212;DHT22;34000;48.772;9.162;2023-02-03T01:38:42;9.80;60.60
48212;DHT22;34000;48.772;9.162;2023-02-03T01:41:11;9.90;60.50
48212;DHT22;34000;48.772;9.162;2023-02-03T01:43:38;9.90;60.40
48212;DHT22;34000;48.772;9.162;2023-02-03T01:48:48;9.90;60.40
48212;DHT22;34000;48.772;9.162;2023-02-03T01:51:14;9.80;60.50
48212;DHT22;34000;48.772;9.162;2023-02-03T01:53:39;9.90;60.60
48212;DHT22;34000;48.772;9.162;2023-02-03T01:56:06;9.90;60.60
48212;DHT22;34000;48.772;9.162;2023-02-03T01:58:34;9.90;60.50
48212;DHT22;34000;48.772;9.162;2023-02-03T02:01:01;9.90;60.40
48212;DHT22;34000;48.772;9.162;2023-02-03T02:03:29;9.90;60.40
48212;DHT22;34000;48.772;9.162;2023-02-03T02:05:57;9.90;60.50
48212;DHT22;34000;48.772;9.162;2023-02-03T02:08:24;9.90;60.50
48212;DHT22;34000;48.772;9.162;2023-02-03T02:10:50;9.90;60.50
48212;DHT22;34000;48.772;9.162;2023-02-03T02:13:16;9.90;60.50
48212;DHT22;34000;48.772;9.162;2023-02-03T02:15:45;9.90;60.60
48212;DHT22;34000;48.772;9.162;2023-02-03T02:26:28;9.60;61.00
48212;DHT22;34000;48.772;9.162;2023-02-03T02:42:31;9.60;61.30
48212;DHT22;34000;48.772;9.162;2023-02-03T02:45:03;9.60;61.40
48212;DHT22;34000;48.772;9.162;2023-02-03T02:47:29;9.50;61.50
48212;DHT22;34000;48.772;9.162;2023-02-03T02:52:21;9.50;61.60
48212;DHT22;34000;48.772;9.162;2023-02-03T02:54:48;9.50;61.60
48212;DHT22;34000;48.772;9.162;2023-02-03T02:57:15;9.50;61.70
48212;DHT22;34000;48.772;9.162;2023-02-03T02:59:44;9.50;61.70
48212;DHT22;34000;48.772;9.162;2023-02-03T03:02:09;9.60;61.70
48212;DHT22;34000;48.772;9.162;2023-02-03T03:04:35;9.60;61.80
48212;DHT22;34000;48.772;9.162;2023-02-03T03:07:11;9.60;62.00
48212;DHT22;34000;48.772;9.162;2023-02-03T03:12:08;9.60;61.80
48212;DHT22;34000;48.772;9.162;2023-02-03T03:14:34;9.60;61.90
48212;DHT22;34000;48.772;9.162;2023-02-03T03:17:05;9.70;61.90
48212;DHT22;34000;48.772;9.162;2023-02-03T03:19:35;9.60;62.00
48212;DHT22;34000;48.772;9.162;2023-02-03T03:22:03;9.60;62.00
48212;DHT22;34000;48.772;9.162;2023-02-03T03:24:33;9.70;62.10
48212;DHT22;34000;48.772;9.162;2023-02-03T03:29:46;9.60;62.00
48212;DHT22;34000;48.772;9.162;2023-02-03T03:32:13;9.70;62.10
48212;DHT22;34000;48.772;9.162;2023-02-03T03:34:39;9.70;62.10
48212;DHT22;34000;48.772;9.162;2023-02-03T03:37:18;9.70;62.00
48212;DHT22;34000;48.772;9.162;2023-02-03T03:39:45;9.70;62.00
48212;DHT22;34000;48.772;9.162;2023-02-03T03:42:13;9.70;62.00
48212;DHT22;34000;48.772;9.162;2023-02-03T03:44:46;9.70;62.10
48212;DHT22;34000;48.772;9.162;2023-02-03T03:47:16;9.60;62.10
48212;DHT22;34000;48.772;9.162;2023-02-03T03:49:44;9.70;62.20
48212;DHT22;34000;48.772;9.162;2023-02-03T03:52:10;9.70;62.20
48212;DHT22;34000;48.772;9.162;2023-02-03T03:54:38;9.70;62.10
48212;DHT22;34000;48.772;9.162;2023-02-03T03:57:27;9.70;62.00
48212;DHT22;34000;48.772;9.162;2023-02-03T03:59:51;9.70;62.10
48212;DHT22;34000;48.772;9.162;2023-02-03T04:02:17;9.70;62.10
48212;DHT22;34000;48.772;9.162;2023-02-03T04:04:44;9.70;62.00
48212;DHT22;34000;48.772;9.162;2023-02-03T04:07:13;9.80;62.10
48212;DHT22;34000;48.772;9.162;2023-02-03T04:09:39;9.70;62.10
48212;DHT22;34000;48.772;9.162;2023-02-03T04:12:22;9.70;62.10
48212;DHT22;34000;48.772;9.162;2023-02-03T04:14:48;9.70;62.10
48212;DHT22;34000;48.772;9.162;2023-02-03T04:17:13;9.70;62.20
48212;DHT22;34000;48.772;9.162;2023-02-03T04:19:39;9.70;62.20
48212;DHT22;34000;48.772;9.162;2023-02-03T04:22:04;9.70;62.20
48212;DHT22;34000;48.772;9.162;2023-02-03T04:24:30;9.70;62.20
48212;DHT22;34000;48.772;9.162;2023-02-03T04:26:55;9.70;62.10
48212;DHT22;34000;48.772;9.162;2023-02-03T04:29:21;9.70;62.10
48212;DHT22;34000;48.772;9.162;2023-02-03T04:31:46;9.70;62.20
48212;DHT22;34000;48.772;9.162;2023-02-03T04:34:12;9.70;62.40
48212;DHT22;34000;48.772;9.162;2023-02-03T04:36:37;9.60;62.70
48212;DHT22;34000;48.772;9.162;2023-02-03T04:39:02;9.50;63.00
48212;DHT22;34000;48.772;9.162;2023-02-03T04:41:28;9.40;63.30
48212;DHT22;34000;48.772;9.162;2023-02-03T04:43:53;9.30;63.60
48212;DHT22;34000;48.772;9.162;2023-02-03T04:46:19;9.30;63.80
48212;DHT22;34000;48.772;9.162;2023-02-03T04:48:44;9.20;64.00
48212;DHT22;34000;48.772;9.162;2023-02-03T04:51:10;9.20;64.20
48212;DHT22;34000;48.772;9.162;2023-02-03T04:53:35;9.20;64.40
48212;DHT22;34000;48.772;9.162;2023-02-03T04:56:01;9.20;64.50
48212;DHT22;34000;48.772;9.162;2023-02-03T04:58:27;9.10;64.70
48212;DHT22;34000;48.772;9.162;2023-02-03T05:00:52;9.10;64.90
48212;DHT22;34000;48.772;9.162;2023-02-03T05:03:18;9.10;65.10
48212;DHT22;34000;48.772;9.162;2023-02-03T05:05:44;9.10;65.30
48212;DHT22;34000;48.772;9.162;2023-02-03T05:08:09;9.00;65.40
48212;DHT22;34000;48.772;9.162;2023-02-03T05:10:35;9.00;65.60
48212;DHT22;34000;48.772;9.162;2023-02-03T05:13:00;9.00;65.90
48212;DHT22;34000;48.772;9.162;2023-02-03T05:15:26;9.00;66.00
48212;DHT22;34000;48.772;9.162;2023-02-03T05:17:52;8.90;66.10
48212;DHT22;34000;48.772;9.162;2023-02-03T05:20:17;8.90;66.20
48212;DHT22;34000;48.772;9.162;2023-02-03T05:22:43;8.90;66.40
48212;DHT22;34000;48.772;9.162;2023-02-03T05:25:08;9.00;67.20
48212;DHT22;34000;48.772;9.162;2023-02-03T05:27:34;8.90;66.50
48212;DHT22;34000;48.772;9.162;2023-02-03T05:30:00;9.00;66.50
48212;DHT22;34000;48.772;9.162;2023-02-03T05:32:25;9.00;66.60
48212;DHT22;34000;48.772;9.162;2023-02-03T05:34:51;9.00;66.60
48212;DHT22;34000;48.772;9.162;2023-02-03T05:37:16;9.00;66.60
48212;DHT22;34000;48.772;9.162;2023-02-03T05:39:42;9.00;66.60
48212;DHT22;34000;48.772;9.162;2023-02-03T05:42:07;9.00;66.70
48212;DHT22;34000;48.772;9.162;2023-02-03T05:44:33;9.10;66.80
48212;DHT22;34000;48.772;9.162;2023-02-03T05:46:58;9.10;66.80
48212;DHT22;34000;48.772;9.162;2023-02-03T05:49:24;9.10;66.80
48212;DHT22;34000;48.772;9.162;2023-02-03T05:51:50;9.10;66.80
48212;DHT22;34000;48.772;9.162;2023-02-03T05:54:16;9.10;66.80
48212;DHT22;34000;48.772;9.162;2023-02-03T05:56:41;9.20;66.80
48212;DHT22;34000;48.772;9.162;2023-02-03T05:59:07;9.20;66.70
48212;DHT22;34000;48.772;9.162;2023-02-03T06:01:33;9.20;66.60
48212;DHT22;34000;48.772;9.162;2023-02-03T06:03:58;9.30;66.50
48212;DHT22;34000;48.772;9.162;2023-02-03T06:06:24;9.30;66.40
48212;DHT22;34000;48.772;9.162;2023-02-03T06:08:51;9.30;66.40
48212;DHT22;34000;48.772;9.162;2023-02-03T06:11:20;9.30;66.40
48212;DHT22;34000;48.772;9.162;2023-02-03T06:13:46;9.30;66.30
48212;DHT22;34000;48.772;9.162;2023-02-03T06:16:11;9.30;66.40
48212;DHT22;34000;48.772;9.162;2023-02-03T06:18:36;9.20;66.40
48212;DHT22;34000;48.772;9.162;2023-02-03T06:21:02;9.60;66.70
48212;DHT22;34000;48.772;9.162;2023-02-03T06:23:27;9.20;66.60
48212;DHT22;34000;48.772;9.162;2023-02-03T06:25:53;9.10;66.60
48212;DHT22;34000;48.772;9.162;2023-02-03T06:28:18;9.00;66.70
48212;DHT22;34000;48.772;9.162;2023-02-03T06:30:44;9.10;66.90
48212;DHT22;34000;48.772;9.162;2023-02-03T06:33:09;9.00;66.90
48212;DHT22;34000;48.772;9.162;2023-02-03T06:35:35;9.00;67.60
48212;DHT22;34000;48.772;9.162;2023-02-03T06:38:00;9.00;67.10
48212;DHT22;34000;48.772;9.162;2023-02-03T06:40:26;9.00;67.00
48212;DHT22;34000;48.772;9.162;2023-02-03T06:42:51;9.00;67.00
48212;DHT22;34000;48.772;9.162;2023-02-03T06:45:17;9.10;67.00
48212;DHT22;34000;48.772;9.162;2023-02-03T06:47:43;9.00;66.90
48212;DHT22;34000;48.772;9.162;2023-02-03T06:50:10;9.00;67.00
48212;DHT22;34000;48.772;9.162;2023-02-03T06:52:36;8.90;67.10
48212;DHT22;34000;48.772;9.162;2023-02-03T06:55:02;8.90;67.20
48212;DHT22;34000;48.772;9.162;2023-02-03T06:57:27;8.90;67.20
48212;DHT22;34000;48.772;9.162;2023-02-03T06:59:53;9.00;67.10
48212;DHT22;34000;48.772;9.162;2023-02-03T07:02:19;9.10;67.00
48212;DHT22;34000;48.772;9.162;2023-02-03T07:04:44;9.20;67.10
48212;DHT22;34000;48.772;9.162;2023-02-03T07:07:13;9.20;67.00
48212;DHT22;34000;48.772;9.162;2023-02-03T07:09:39;9.20;66.90
48212;DHT22;34000;48.772;9.162;2023-02-03T07:12:05;9.20;66.80
48212;DHT22;34000;48.772;9.162;2023-02-03T07:14:30;9.30;66.80
48212;DHT22;34000;48.772;9.162;2023-02-03T07:16:56;9.30;66.70
48212;DHT22;34000;48.772;9.162;2023-02-03T07:19:21;9.30;66.70
48212;DHT22;34000;48.772;9.162;2023-02-03T07:21:47;9.20;66.70
48212;DHT22;34000;48.772;9.162;2023-02-03T07:24:12;9.20;66.80
48212;DHT22;34000;48.772;9.162;2023-02-03T07:26:38;9.20;66.80
48212;DHT22;34000;48.772;9.162;2023-02-03T07:29:03;9.20;66.80
48212;DHT22;34000;48.772;9.162;2023-02-03T07:31:29;9.20;66.90
48212;DHT22;34000;48.772;9.162;2023-02-03T07:33:55;9.20;66.90
48212;DHT22;34000;48.772;9.162;2023-02-03T07:36:21;9.20;67.00
48212;DHT22;34000;48.772;9.162;2023-02-03T07:38:46;9.20;67.00
48212;DHT22;34000;48.772;9.162;2023-02-03T07:41:12;9.20;67.10
48212;DHT22;34000;48.772;9.162;2023-02-03T07:43:37;9.10;67.30
48212;DHT22;34000;48.772;9.162;2023-02-03T07:46:03;9.00;67.40
48212;DHT22;34000;48.772;9.162;2023-02-03T07:48:29;8.90;67.60
48212;DHT22;34000;48.772;9.162;2023-02-03T07:50:54;8.90;68.00
48212;DHT22;34000;48.772;9.162;2023-02-03T07:53:20;8.90;68.20
48212;DHT22;34000;48.772;9.162;2023-02-03T07:55:45;8.80;68.30
48212;DHT22;34000;48.772;9.162;2023-02-03T07:58:11;8.90;68.40
48212;DHT22;34000;48.772;9.162;2023-02-03T08:00:36;8.90;68.40
48212;DHT22;34000;48.772;9.162;2023-02-03T08:03:02;9.00;68.40
48212;DHT22;34000;48.772;9.162;2023-02-03T08:05:28;9.00;68.30
48212;DHT22;34000;48.772;9.162;2023-02-03T08:07:54;9.00;68.30
48212;DHT22;34000;48.772;9.162;2023-02-03T08:10:20;9.10;68.30
48212;DHT22;34000;48.772;9.162;2023-02-03T08:12:45;9.20;68.10
48212;DHT22;34000;48.772;9.162;2023-02-03T08:15:13;9.10;68.00
48212;DHT22;34000;48.772;9.162;2023-02-03T08:17:38;9.10;67.90
48212;DHT22;34000;48.772;9.162;2023-02-03T08:20:06;9.10;68.00
48212;DHT22;34000;48.772;9.162;2023-02-03T08:22:31;9.10;68.30
48212;DHT22;34000;48.772;9.162;2023-02-03T08:24:57;9.00;68.60
48212;DHT22;34000;48.772;9.162;2023-02-03T08:27:22;8.90;69.00
48212;DHT22;34000;48.772;9.162;2023-02-03T08:29:48;8.90;69.20
48212;DHT22;34000;48.772;9.162;2023-02-03T08:32:15;8.90;69.40
48212;DHT22;34000;48.772;9.162;2023-02-03T08:34:41;8.90;69.60
48212;DHT22;34000;48.772;9.162;2023-02-03T08:37:06;8.80;69.80
48212;DHT22;34000;48.772;9.162;2023-02-03T08:39:32;8.80;69.80
48212;DHT22;34000;48.772;9.162;2023-02-03T08:41:58;8.80;70.00
48212;DHT22;34000;48.772;9.162;2023-02-03T08:44:23;8.80;70.10
48212;DHT22;34000;48.772;9.162;2023-02-03T08:46:49;8.80;70.20
48212;DHT22;34000;48.772;9.162;2023-02-03T08:49:15;8.90;70.30
48212;DHT22;34000;48.772;9.162;2023-02-03T08:51:41;8.90;70.30
48212;DHT22;34000;48.772;9.162;2023-02-03T08:54:06;9.00;70.40
48212;DHT22;34000;48.772;9.162;2023-02-03T08:56:32;9.10;70.40
48212;DHT22;34000;48.772;9.162;2023-02-03T08:59:01;9.30;70.40
48212;DHT22;34000;48.772;9.162;2023-02-03T09:01:26;9.30;70.10
48212;DHT22;34000;48.772;9.162;2023-02-03T09:03:52;9.30;70.00
48212;DHT22;34000;48.772;9.162;2023-02-03T09:06:17;9.20;70.10
48212;DHT22;34000;48.772;9.162;2023-02-03T09:08:43;9.20;70.30
48212;DHT22;34000;48.772;9.162;2023-02-03T09:11:10;9.10;70.60
48212;DHT22;34000;48.772;9.162;2023-02-03T09:13:36;9.10;70.80
48212;DHT22;34000;48.772;9.162;2023-02-03T09:16:04;9.10;71.10
48212;DHT22;34000;48.772;9.162;2023-02-03T09:18:29;9.10;71.20
48212;DHT22;34000;48.772;9.162;2023-02-03T09:21:05;9.10;71.40
48212;DHT22;34000;48.772;9.162;2023-02-03T09:23:30;9.00;71.60
48212;DHT22;34000;48.772;9.162;2023-02-03T09:26:00;9.10;72.40
48212;DHT22;34000;48.772;9.162;2023-02-03T09:28:25;9.10;71.90
48212;DHT22;34000;48.772;9.162;2023-02-03T09:30:51;9.10;72.20
48212;DHT22;34000;48.772;9.162;2023-02-03T09:33:17;9.30;72.50
48212;DHT22;34000;48.772;9.162;2023-02-03T09:35:50;9.40;72.30
48212;DHT22;34000;48.772;9.162;2023-02-03T09:38:15;9.50;72.30
48212;DHT22;34000;48.772;9.162;2023-02-03T09:40:41;9.60;72.10
48212;DHT22;34000;48.772;9.162;2023-02-03T09:45:38;9.80;72.00
48212;DHT22;34000;48.772;9.162;2023-02-03T09:48:05;10.10;72.00
48212;DHT22;34000;48.772;9.162;2023-02-03T09:50:35;10.20;71.70
48212;DHT22;34000;48.772;9.162;2023-02-03T09:53:09;10.30;71.40
48212;DHT22;34000;48.772;9.162;2023-02-03T09:55:40;10.40;71.20
48212;DHT22;34000;48.772;9.162;2023-02-03T09:58:12;10.40;71.10
48212;DHT22;34000;48.772;9.162;2023-02-03T10:03:18;10.60;70.80
48212;DHT22;34000;48.772;9.162;2023-02-03T10:08:21;11.00;70.80
48212;DHT22;34000;48.772;9.162;2023-02-03T10:13:47;11.10;69.90
48212;DHT22;34000;48.772;9.162;2023-02-03T10:18:47;11.60;70.00
48212;DHT22;34000;48.772;9.162;2023-02-03T10:23:55;12.00;69.00
48212;DHT22;34000;48.772;9.162;2023-02-03T10:26:24;12.00;68.60
48212;DHT22;34000;48.772;9.162;2023-02-03T10:28:52;12.00;68.50
48212;DHT22;34000;48.772;9.162;2023-02-03T10:31:20;12.10;68.50
48212;DHT22;34000;48.772;9.162;2023-02-03T10:33:47;12.10;68.30
48212;DHT22;34000;48.772;9.162;2023-02-03T10:36:21;12.10;68.10
48212;DHT22;34000;48.772;9.162;2023-02-03T10:41:13;12.10;67.90
48212;DHT22;34000;48.772;9.162;2023-02-03T10:43:39;12.00;67.80
48212;DHT22;34000;48.772;9.162;2023-02-03T10:46:20;11.90;67.80
48212;DHT22;34000;48.772;9.162;2023-02-03T10:48:50;11.80;67.80
48212;DHT22;34000;48.772;9.162;2023-02-03T10:51:23;11.70;68.50
48212;DHT22;34000;48.772;9.162;2023-02-03T10:53:49;11.70;68.10
48212;DHT22;34000;48.772;9.162;2023-02-03T10:56:19;11.80;68.20
48212;DHT22;34000;48.772;9.162;2023-02-03T10:58:46;12.20;68.60
48212;DHT22;34000;48.772;9.162;2023-02-03T11:01:14;13.00;68.20
48212;DHT22;34000;48.772;9.162;2023-02-03T11:03:40;14.00;67.10
48212;DHT22;34000;48.772;9.162;2023-02-03T11:06:08;15.40;65.10
48212;DHT22;34000;48.772;9.162;2023-02-03T11:08:35;15.80;62.60
48212;DHT22;34000;48.772;9.162;2023-02-03T11:11:05;15.70;62.10
48212;DHT22;34000;48.772;9.162;2023-02-03T11:13:31;15.30;61.80
48212;DHT22;34000;48.772;9.162;2023-02-03T11:16:00;14.80;62.40
48212;DHT22;34000;48.772;9.162;2023-02-03T11:21:30;14.10;63.70
48212;DHT22;34000;48.772;9.162;2023-02-03T11:23:55;13.80;64.00
48212;DHT22;34000;48.772;9.162;2023-02-03T11:26:22;13.40;64.40
48212;DHT22;34000;48.772;9.162;2023-02-03T11:28:49;13.20;64.80
48212;DHT22;34000;48.772;9.162;2023-02-03T11:31:24;13.10;65.10
48212;DHT22;34000;48.772;9.162;2023-02-03T11:33:58;12.90;65.10
48212;DHT22;34000;48.772;9.162;2023-02-03T11:36:25;12.80;65.20
48212;DHT22;34000;48.772;9.162;2023-02-03T11:38:50;12.60;65.00
48212;DHT22;34000;48.772;9.162;2023-02-03T11:41:19;12.60;65.30
48212;DHT22;34000;48.772;9.162;2023-02-03T11:43:46;12.70;65.10
48212;DHT22;34000;48.772;9.162;2023-02-03T11:46:12;12.80;64.80
48212;DHT22;34000;48.772;9.162;2023-02-03T11:48:43;12.90;64.60
48212;DHT22;34000;48.772;9.162;2023-02-03T11:54:03;12.90;64.10
48212;DHT22;34000;48.772;9.162;2023-02-03T12:04:20;12.70;64.00
48212;DHT22;34000;48.772;9.162;2023-02-03T12:12:20;12.70;63.80
48212;DHT22;34000;48.772;9.162;2023-02-03T12:30:17;12.50;63.50
48212;DHT22;34000;48.772;9.162;2023-02-03T12:32:45;12.60;63.50
48212;DHT22;34000;48.772;9.162;2023-02-03T12:35:16;12.60;63.20
48212;DHT22;34000;48.772;9.162;2023-02-03T12:37:48;12.60;62.90
48212;DHT22;34000;48.772;9.162;2023-02-03T12:40:19;12.50;62.60
48212;DHT22;34000;48.772;9.162;2023-02-03T12:42:56;12.50;62.70
48212;DHT22;34000;48.772;9.162;2023-02-03T12:45:28;12.50;62.40
48212;DHT22;34000;48.772;9.162;2023-02-03T12:47:55;12.40;62.10
48212;DHT22;34000;48.772;9.162;2023-02-03T12:50:28;12.40;61.90
48212;DHT22;34000;48.772;9.162;2023-02-03T12:53:06;12.20;61.90
48212;DHT22;34000;48.772;9.162;2023-02-03T12:55:36;12.20;61.90
48212;DHT22;34000;48.772;9.162;2023-02-03T12:58:18;12.30;62.30
48212;DHT22;34000;48.772;9.162;2023-02-03T13:00:53;12.20;61.70
48212;DHT22;34000;48.772;9.162;2023-02-03T13:03:31;12.10;61.70
48212;DHT22;34000;48.772;9.162;2023-02-03T13:06:03;12.20;61.90
48212;DHT22;34000;48.772;9.162;2023-02-03T13:13:41;12.30;61.70
48212;DHT22;34000;48.772;9.162;2023-02-03T13:16:08;12.40;61.70
48212;DHT22;34000;48.772;9.162;2023-02-03T13:18:35;12.40;61.50
48212;DHT22;34000;48.772;9.162;2023-02-03T13:21:01;12.40;61.20
48212;DHT22;34000;48.772;9.162;2023-02-03T13:23:27;12.30;61.00
48212;DHT22;34000;48.772;9.162;2023-02-03T13:26:00;12.30;61.00
48212;DHT22;34000;48.772;9.162;2023-02-03T13:38:44;12.20;60.80
48212;DHT22;34000;48.772;9.162;2023-02-03T13:41:19;12.10;60.70
48212;DHT22;34000;48.772;9.162;2023-02-03T13:43:47;12.20;60.90
48212;DHT22;34000;48.772;9.162;2023-02-03T13:46:23;12.20;60.70
48212;DHT22;34000;48.772;9.162;2023-02-03T13:48:49;12.20;60.60
48212;DHT22;34000;48.772;9.162;2023-02-03T13:51:16;12.20;60.50
48212;DHT22;34000;48.772;9.162;2023-02-03T13:53:43;12.10;60.30
48212;DHT22;34000;48.772;9.162;2023-02-03T13:56:24;12.20;60.40
48212;DHT22;34000;48.772;9.162;2023-02-03T14:03:49;12.20;60.20
48212;DHT22;34000;48.772;9.162;2023-02-03T14:08:58;12.10;60.20
48212;DHT22;34000;48.772;9.162;2023-02-03T14:16:33;12.00;60.50
48212;DHT22;34000;48.772;9.162;2023-02-03T14:18:58;12.00;60.50
48212;DHT22;34000;48.772;9.162;2023-02-03T14:21:24;12.00;60.40
48212;DHT22;34000;48.772;9.162;2023-02-03T14:23:55;12.10;60.50
48212;DHT22;34000;48.772;9.162;2023-02-03T14:26:28;12.20;60.60
48212;DHT22;34000;48.772;9.162;2023-02-03T14:28:54;12.10;60.50
48212;DHT22;34000;48.772;9.162;2023-02-03T14:31:20;12.00;60.40
48212;DHT22;34000;48.772;9.162;2023-02-03T14:38:57;12.00;60.20
48212;DHT22;34000;48.772;9.162;2023-02-03T14:42:12;12.00;60.20
48212;DHT22;34000;48.772;9.162;2023-02-03T14:54:38;11.90;60.10
48212;DHT22;34000;48.772;9.162;2023-02-03T14:59:53;11.90;60.00
48212;DHT22;34000;48.772;9.162;2023-02-03T15:02:22;11.80;59.90
48212;DHT22;34000;48.772;9.162;2023-02-03T15:04:50;11.90;60.00
48212;DHT22;34000;48.772;9.162;2023-02-03T15:10:00;11.80;60.00
48212;DHT22;34000;48.772;9.162;2023-02-03T15:12:26;11.80;60.00
48212;DHT22;34000;48.772;9.162;2023-02-03T15:14:52;11.70;60.00
48212;DHT22;34000;48.772;9.162;2023-02-03T15:17:21;11.70;60.10
48212;DHT22;34000;48.772;9.162;2023-02-03T15:19:48;11.80;60.30
48212;DHT22;34000;48.772;9.162;2023-02-03T15:22:17;11.70;60.20
48212;DHT22;34000;48.772;9.162;2023-02-03T15:24:42;11.70;60.30
48212;DHT22;34000;48.772;9.162;2023-02-03T15:27:17;11.70;60.20
48212;DHT22;34000;48.772;9.162;2023-02-03T15:29:44;11.60;60.30
48212;DHT22;34000;48.772;9.162;2023-02-03T15:32:11;11.60;60.40
48212;DHT22;34000;48.772;9.162;2023-02-03T15:34:42;11.60;60.50
48212;DHT22;34000;48.772;9.162;2023-02-03T15:37:12;11.50;60.50
48212;DHT22;34000;48.772;9.162;2023-02-03T15:39:44;11.50;60.70
48212;DHT22;34000;48.772;9.162;2023-02-03T15:42:19;11.50;60.80
48212;DHT22;34000;48.772;9.162;2023-02-03T15:44:50;11.50;60.80
48212;DHT22;34000;48.772;9.162;2023-02-03T15:47:39;11.50;60.90
48212;DHT22;34000;48.772;9.162;2023-02-03T15:50:04;11.50;60.90
48212;DHT22;34000;48.772;9.162;2023-02-03T15:52:32;11.60;60.90
48212;DHT22;34000;48.772;9.162;2023-02-03T15:55:05;11.60;60.90
48212;DHT22;34000;48.772;9.162;2023-02-03T15:57:33;11.60;60.80
48212;DHT22;34000;48.772;9.162;2023-02-03T15:59:59;11.60;60.80
48212;DHT22;34000;48.772;9.162;2023-02-03T16:02:29;11.60;60.80
48212;DHT22;34000;48.772;9.162;2023-02-03T16:04:55;11.60;60.80
48212;DHT22;34000;48.772;9.162;2023-02-03T16:07:25;11.60;60.80
48212;DHT22;34000;48.772;9.162;2023-02-03T16:09:55;11.60;61.40
48212;DHT22;34000;48.772;9.162;2023-02-03T16:12:21;11.70;61.00
48212;DHT22;34000;48.772;9.162;2023-02-03T16:14:47;11.60;60.70
48212;DHT22;34000;48.772;9.162;2023-02-03T16:17:21;11.60;60.80
48212;DHT22;34000;48.772;9.162;2023-02-03T16:19:47;11.50;60.90
48212;DHT22;34000;48.772;9.162;2023-02-03T16:22:29;11.50;61.10
48212;DHT22;34000;48.772;9.162;2023-02-03T16:24:56;11.50;61.20
48212;DHT22;34000;48.772;9.162;2023-02-03T16:29:50;11.50;61.30
48212;DHT22;34000;48.772;9.162;2023-02-03T16:32:35;11.50;61.40
48212;DHT22;34000;48.772;9.162;2023-02-03T16:35:19;11.50;61.60
48212;DHT22;34000;48.772;9.162;2023-02-03T16:38:07;11.50;61.80
48212;DHT22;34000;48.772;9.162;2023-02-03T16:40:51;11.40;61.80
48212;DHT22;34000;48.772;9.162;2023-02-03T16:43:35;11.40;61.90
48212;DHT22;34000;48.772;9.162;2023-02-03T16:46:19;11.40;62.00
48212;DHT22;34000;48.772;9.162;2023-02-03T16:49:03;11.30;62.10
48212;DHT22;34000;48.772;9.162;2023-02-03T16:51:48;11.30;62.20
48212;DHT22;34000;48.772;9.162;2023-02-03T16:54:13;11.30;62.30
48212;DHT22;34000;48.772;9.162;2023-02-03T16:56:39;11.30;62.40
48212;DHT22;34000;48.772;9.162;2023-02-03T16:59:05;11.20;62.60
48212;DHT22;34000;48.772;9.162;2023-02-03T17:01:30;11.20;62.80
48212;DHT22;34000;48.772;9.162;2023-02-03T17:03:56;11.20;62.90
48212;DHT22;34000;48.772;9.162;2023-02-03T17:06:21;11.20;63.00
48212;DHT22;34000;48.772;9.162;2023-02-03T17:08:46;11.20;63.10
48212;DHT22;34000;48.772;9.162;2023-02-03T17:11:16;11.10;63.20
48212;DHT22;34000;48.772;9.162;2023-02-03T17:13:42;11.10;63.30
48212;DHT22;34000;48.772;9.162;2023-02-03T17:16:12;11.10;63.40
48212;DHT22;34000;48.772;9.162;2023-02-03T17:18:38;11.00;63.50
48212;DHT22;34000;48.772;9.162;2023-02-03T17:21:13;11.10;63.60
48212;DHT22;34000;48.772;9.162;2023-02-03T17:23:39;11.10;63.60
48212;DHT22;34000;48.772;9.162;2023-02-03T17:26:04;11.10;63.60
48212;DHT22;34000;48.772;9.162;2023-02-03T17:28:30;11.10;63.60
48212;DHT22;34000;48.772;9.162;2023-02-03T17:30:56;11.10;63.60
48212;DHT22;34000;48.772;9.162;2023-02-03T17:33:22;11.10;63.60
48212;DHT22;34000;48.772;9.162;2023-02-03T17:35:52;11.10;63.60
48212;DHT22;34000;48.772;9.162;2023-02-03T17:38:23;11.20;63.60
48212;DHT22;34000;48.772;9.162;2023-02-03T17:40:48;11.10;63.50
48212;DHT22;34000;48.772;9.162;2023-02-03T17:43:13;11.20;63.50
48212;DHT22;34000;48.772;9.162;2023-02-03T17:45:39;11.20;63.40
48212;DHT22;34000;48.772;9.162;2023-02-03T17:48:05;11.20;63.40
48212;DHT22;34000;48.772;9.162;2023-02-03T17:50:31;11.20;63.30
48212;DHT22;34000;48.772;9.162;2023-02-03T17:52:56;11.20;63.40
48212;DHT22;34000;48.772;9.162;2023-02-03T17:55:21;11.20;63.30
48212;DHT22;34000;48.772;9.162;2023-02-03T17:57:47;11.20;63.20
48212;DHT22;34000;48.772;9.162;2023-02-03T18:00:12;11.20;63.20